Tiempo atmosférico en la estación meteorológica de Tomelloso, Ciudad Real (662 m.)



Fecha
DESCASC
Temp. máxima en grados centígrados (hora)
DESCASC
Temp. mínima en grados centígrados (hora)
DESCASC
Temp. media en grados centígrados
DESCASC
Racha de viento máxima en m/sg (hora)
DESCASC
Velocidad máxima media en intervalos de 10 minutos(hora)
DESCASC
Precipitaciones diarias en mm
DESCASC
Precipitaciones de 00:00 a 06:00 en mm
DESCASC
Precipitaciones de 06:00 a 12:00 en mm
DESCASC
Precipitaciones de 12:00 a 18:00 en mm
DESCASC
Precipitaciones de 18:00 a 24:00 en mm
DESCASC
26-11-2020 15.6 (15:40) 8.2 (02:10) 11.9 11.67 (08:00) 8.89 (12:30) 0 0 0 0 0
25-11-2020 15.4 (15:40) 5 (01:00) 10.2 8.89 (15:00) 5.56 (12:40) 0.2 0 0.2 0 0
24-11-2020 16.1 (15:10) -3 (08:00) 6.6 5 (15:30) 3.06 (23:10) 0 0 0 0 0
23-11-2020 15.6 (15:40) -3.3 (07:40) 6.2 4.72 (14:00) 3.06 (13:40) 0 0 0 0 0
22-11-2020 14.7 (16:00) 0.9 (00:00) 7.8 6.11 (05:10) 4.72 (05:10) 0 0 0 0 0
21-11-2020 16.9 (15:30) 0.3 (00:00) 8.6 8.89 (17:00) 6.39 (17:10) 0 0 0 0 0
20-11-2020 16.8 (16:10) 4 (00:00) 10.4 5.83 (15:10) 3.33 (13:10) -- 0 -- 0 0
19-11-2020 19.7 (16:10) 4.7 (00:00) 12.2 4.72 (15:20) 3.33 (15:30) 0 0 0 0 0
18-11-2020 20 (15:10) 4.1 (00:00) 12 3.33 (14:40) 2.22 (00:30) 0.2 0 0.2 0 0
17-11-2020 18.5 (16:10) 6.1 (00:00) 12.3 3.89 (14:40) 1.94 (14:50) 0 0 0 0 0
16-11-2020 20.4 (15:40) 10.9 (00:00) 15.6 5.28 (02:50) 2.78 (02:50) 0 0 0 0 0
15-11-2020 20.4 (16:20) 11 (00:00) 15.7 7.22 (14:00) 3.61 (14:00) 0 0 0 0 0
14-11-2020 16.3 (14:10) 8.9 (00:00) 12.6 5.83 (15:00) 3.33 (14:40) 1.2 0 1.2 0 0
13-11-2020 18.4 (15:50) 3.6 (00:00) 11 3.89 (14:00) 1.94 (14:40) 0 0 0 0 0
12-11-2020 16.5 (15:50) 3.9 (00:00) 10.2 9.44 (16:40) 7.22 (16:40) 0 0 0 0 0
11-11-2020 17 (16:10) 3.6 (00:00) 10.3 4.72 (16:10) 3.06 (16:10) 0.2 0.2 0 0 0
10-11-2020 15.6 (16:40) 6.5 (00:00) 11.1 4.44 (14:50) 2.22 (16:00) 0.2 0.2 0 0 0
09-11-2020 16.8 (14:30) 8.7 (00:00) 12.7 5.83 (14:50) 3.33 (07:50) 1.2 0 1.2 0 0
08-11-2020 18.4 (15:20) 4.9 (00:00) 11.6 6.11 (14:30) 2.78 (14:30) 0 0 0 0 0
07-11-2020 16.3 (14:10) 8.7 (00:00) 12.5 15 (05:50) 6.39 (05:50) 14.2 10 4 0.2 0
06-11-2020 18.6 (15:00) 11.5 (00:00) 15.1 16.11 (11:20) 11.67 (11:20) 0.6 0 0.2 0 0.4
05-11-2020 13.8 (15:50) 10.8 (00:00) 12.3 18.06 (03:30) 13.06 (09:50) 4.6 0.2 0.8 3.6 0
04-11-2020 13.6 (12:40) 9.9 (00:00) 11.8 13.61 (23:50) 9.44 (23:59) 3.2 2 0.4 0.8 0
03-11-2020 22.2 (15:30) 7.1 (00:00) 14.7 12.5 (17:00) 7.78 (23:00) 1.8 0 0 0 1.8
02-11-2020 24.9 (16:00) 4.6 (00:00) 14.7 4.44 (12:50) 1.94 (15:30) 0 0 0 0 0
01-11-2020 24.1 (15:30) 5.8 (00:00) 15 3.89 (15:20) 1.94 (22:50) 0 0 0 0 0
31-10-2020 24.8 (15:40) 4.2 (00:00) 14.5 3.33 (12:20) 1.94 (12:40) 0 0 0 0 0
30-10-2020 23.2 (15:50) 4.6 (00:00) 13.9 5 (11:30) 3.61 (11:10) 0 0 0 0 0
29-10-2020 20.1 (16:20) 6.9 (00:00) 13.5 4.72 (11:00) 3.33 (11:00) 0 0 0 0 0
28-10-2020 18.7 (15:10) 6.2 (00:00) 12.5 4.72 (14:00) 2.78 (04:30) 0 0 0 0 0

Gráficas

Temp. máximas Temp. mínimas Temp. medias Precipitaciones Rachas de viento máximas Velocidades máximas media en intervalos de 10 minutos

Datos horarios

Fecha y hora oficial Temperatura (ºC) Velocidad del viento (km/h) Dirección del viento Racha (km/h) Dirección de racha Precipitación (mm) Presión (hPa) Tendencia (hPa) Humedad (%)
2020-11-26 23:00:00 11 24 Este 34 Este 0 934.1 -0.3 78
2020-11-26 22:00:00 11.6 24 Sudeste 33 Sudeste 0 933.9 -- 76
2020-11-26 21:00:00 11 17 Este 23 Este 0 933.8 -- 82
2020-11-26 20:00:00 9.3 4 Noroeste 14 Oeste 0 934.4 -- 83
2020-11-26 19:00:00 10 6 Oeste 17 Oeste 0 934 -- 80
2020-11-26 18:00:00 11.5 8 Oeste 24 Este 0 933.3 -- 79
2020-11-26 17:00:00 14.4 18 Este 37 Sudeste 0 932.2 -- 64
2020-11-26 16:00:00 15.5 23 Sudeste 39 Sudeste 0 931.9 -- 55
2020-11-26 15:00:00 15 24 Sudeste 38 Sudeste 0 932 -- 60
2020-11-26 14:00:00 13.1 25 Este 41 Este 0 932.3 -- 74
2020-11-26 13:00:00 12 28 Este 42 Este 0 933.5 -- 78
2020-11-26 12:00:00 11.5 31 Este 42 Sudeste 0 934.3 -- 79
2020-11-26 11:00:00 10.4 25 Este 35 Este 0 934.6 -- 84
2020-11-26 10:00:00 9.8 24 Este 39 Este 0 934.5 -- 87
2020-11-26 09:00:00 9.5 27 Este 42 Este 0 934.8 -- 89
2020-11-26 08:00:00 10 31 Este 42 Este 0 934.6 -- 87
2020-11-26 07:00:00 10.3 17 Este 28 Este 0 934.1 -- 84
2020-11-26 06:00:00 9.1 19 Este 31 Este 0 934 -- 89
2020-11-26 05:00:00 9.1 23 Este 31 Este 0 934.1 -- 87
2020-11-26 04:00:00 8.7 16 Este 23 Este 0 934.4 -- 88
2020-11-26 03:00:00 8.3 14 Este 27 Este 0 934.5 -- 90
2020-11-26 02:00:00 8.3 21 Este 27 Este 0 935.2 -- 89
2020-11-26 01:00:00 8.5 15 Este 19 Este 0 935.9 -- 86
2020-11-26 00:00:00 9.4 8 Este 10 Este 0 936.6 -- 82
2020-11-25 23:00:00 10.5 7 Sudeste 11 Sudeste 0 936.6 -- 73
2020-11-25 22:00:00 10.5 5 Sudeste 15 Nordeste 0 936.5 -- 74
2020-11-25 21:00:00 10.4 5 Sudeste 9 Este 0 936.5 -- 82
2020-11-25 20:00:00 11.1 6 Este 16 Sudoeste 0 936.5 -- 78
2020-11-25 19:00:00 12.1 10 Sudoeste 23 Sudoeste 0 936.4 -- 69
2020-11-25 18:00:00 12.9 6 Sudeste 15 Sur 0 935.9 -- 63
2020-11-25 17:00:00 14.6 12 Sur 24 Sur 0 936.2 -- 56
2020-11-25 16:00:00 15 14 Sur 26 Sur 0 936.3 -- 54
2020-11-25 15:00:00 14.4 19 Sudoeste 32 Sudoeste 0 937.1 -- 55
2020-11-25 14:00:00 14.4 12 Sudoeste 29 Sur 0 938 -- 55
2020-11-25 13:00:00 14 18 Sur 30 Sudoeste 0 938.9 -- 60
2020-11-25 12:00:00 12.7 19 Sudoeste 32 Sur 0 939.8 -- 69
2020-11-25 11:00:00 11.9 18 Sudoeste 27 Sudoeste 0 940.1 -- 77
2020-11-25 10:00:00 9.9 5 Sudoeste 13 Sur 0 940.3 -- 86
2020-11-25 09:00:00 8.7 9 Sur 14 Sur 0 940.2 -- 89
2020-11-25 08:00:00 7.3 9 Sur 12 Sur 0 940.4 -- 91
2020-11-25 07:00:00 5.8 4 Sur 5 Sur 0.2 940.5 -- 92
2020-11-25 06:00:00 5.2 3 Este 5 Norte 0 940.6 -- 89
2020-11-25 05:00:00 5.2 2 Nordeste 7 Norte 0 941 -- 87
2020-11-25 04:00:00 5.4 2 Norte 7 Norte 0 941.3 -- 88
2020-11-25 03:00:00 5.2 0 Calma 6 Sur 0 941.6 -- 85
2020-11-25 02:00:00 5.2 3 Sur 14 Sur 0 941.9 -- 81
2020-11-25 01:00:00 5 5 Sur 10 Sur 0 942.6 -- 81
2020-11-25 00:00:00 6.8 8 Sur 15 Sudoeste 0 943 -- 75
2020-11-24 23:00:00 6.6 9 Sudoeste 13 Sur 0 943.7 -- 74
2020-11-24 22:00:00 7.3 8 Sudoeste 14 Sudoeste 0 943.8 -- 66
2020-11-24 21:00:00 7.4 8 Sudoeste 11 Sur 0 943.8 -- 62
2020-11-24 20:00:00 6.7 8 Sur 10 Sur 0 943.7 -- 66
2020-11-24 19:00:00 9.3 3 Sur 10 Oeste 0 943.6 -- 56
2020-11-24 18:00:00 11.3 5 Oeste 14 Oeste 0 943.7 -- 46
2020-11-24 17:00:00 14.1 7 Oeste 17 Oeste 0 943.6 -- 36
2020-11-24 16:00:00 15.5 8 Oeste 18 Noroeste 0 943.8 -- 33
2020-11-24 15:00:00 15.8 7 Oeste 17 Oeste 0 944.4 -- 35
2020-11-24 14:00:00 14.3 6 Oeste 14 Oeste 0 945.3 -- 45
2020-11-24 13:00:00 12.4 3 Oeste 7 Oeste 0 946.2 -- 52
2020-11-24 12:00:00 9.6 2 Sudeste 6 Nordeste 0 947.1 -- 59
2020-11-24 11:00:00 6 5 Norte 8 Norte 0 947.7 -- 71
2020-11-24 10:00:00 3.3 3 Nordeste 5 Norte 0 947.6 -- 84
2020-11-24 09:00:00 -1.2 2 Nordeste 6 Sur 0 947.3 -- 92
2020-11-24 08:00:00 -3 2 Este 4 Norte 0 947.2 -- 94
2020-11-24 07:00:00 -2.2 3 Sur 5 Sur 0 946.9 -- 95
2020-11-24 06:00:00 -2 3 Nordeste 6 Nordeste 0 947.1 -- 92
2020-11-24 05:00:00 0.4 5 Sur 7 Sur 0 947 -- 95
2020-11-24 04:00:00 -1.1 4 Sur 5 Sur 0 947.5 -- 96
2020-11-24 03:00:00 -1.1 3 Nordeste 4 Nordeste 0 948 -- 95
2020-11-24 02:00:00 -1 2 Este 7 Sur 0 948 -- 93
2020-11-24 01:00:00 -0.3 4 Sur 8 Sur 0 948.5 -- 91
2020-11-24 00:00:00 1.1 4 Sur 7 Sudoeste 0 948.8 -- 91
2020-11-23 23:00:00 2.6 4 Sur 7 Sur 0 949 -- 89
2020-11-23 22:00:00 3.5 3 Sur 5 Sur 0 949 -- 87
2020-11-23 21:00:00 4.4 2 Sudeste 6 Sur 0 949 -- 79
2020-11-23 20:00:00 7.2 3 Sur 4 Sur 0 948.9 -- 71
2020-11-23 19:00:00 9.4 2 Sur 3 Sur 0 948.9 -- 64
2020-11-23 18:00:00 11.2 3 Nordeste 7 Nordeste 0 948.6 -- 56
2020-11-23 17:00:00 14.5 3 Nordeste 10 Nordeste 0 948.4 -- 43
2020-11-23 16:00:00 15.5 6 Nordeste 13 Nordeste 0 948.3 -- 40
2020-11-23 15:00:00 15.2 8 Nordeste 17 Nordeste 0 948.5 -- 42
2020-11-23 14:00:00 14 10 Nordeste 17 Nordeste 0 949 -- 50
2020-11-23 13:00:00 12.6 9 Nordeste 15 Nordeste 0 949.6 -- 58
2020-11-23 12:00:00 9.3 8 Este 14 Nordeste 0 950.6 -- 73
2020-11-23 11:00:00 5.6 5 Este 12 Nordeste 0 951.1 -- 82
2020-11-23 10:00:00 1.7 8 Nordeste 10 Nordeste 0 950.9 -- 90
2020-11-23 09:00:00 -0.8 2 Norte 5 Norte 0 950.5 -- 94
2020-11-23 08:00:00 -3 0 Calma 3 Este 0 950.3 -- 96
2020-11-23 07:00:00 -2.6 0 Calma 5 Norte 0 950 -- 96
2020-11-23 06:00:00 -2.4 3 Nordeste 6 Norte 0 950 -- 96
2020-11-23 05:00:00 -1.8 3 Sur 7 Noroeste 0 950 -- 95
2020-11-23 04:00:00 -1 3 Noroeste 6 Noroeste 0 950 -- 96
2020-11-23 03:00:00 -0.9 3 Sur 6 Sur 0 950 -- 95
2020-11-23 02:00:00 -0.7 3 Este 5 Este 0 950.4 -- 92
2020-11-23 01:00:00 0.6 2 Sur 7 Sur 0 950.4 -- 90
2020-11-23 00:00:00 1.8 3 Sur 4 Sur 0 950.6 -- 91
2020-11-22 23:00:00 1.9 2 Sur 4 Sur 0 950.6 -- 90
2020-11-22 22:00:00 3.2 2 Sudeste 7 Sur 0 950.4 -- 85
2020-11-22 21:00:00 4.9 4 Sur 5 Sur 0 950.2 -- 84
2020-11-22 20:00:00 6.3 2 Sudoeste 6 Sur 0 949.8 -- 80
2020-11-22 19:00:00 8.3 3 Sudeste -- -- 0 949.5 -- 70
2020-11-22 18:00:00 10 4 Norte 7 Norte 0 949.5 -- 63
2020-11-22 17:00:00 13.3 3 Norte 8 Norte 0 949.5 -- 55
2020-11-22 16:00:00 14.6 3 Noroeste 11 Norte 0 949.3 -- 51
2020-11-22 15:00:00 14 3 Norte 8 Noroeste 0 949.5 -- 51
2020-11-22 14:00:00 12.9 3 Noroeste 10 Nordeste 0 950.1 -- 61
2020-11-22 13:00:00 9.9 5 Nordeste 12 Nordeste 0 950.9 -- 75
2020-11-22 12:00:00 7.3 5 Nordeste 13 Este 0 951.7 -- 98
2020-11-22 11:00:00 5.4 9 Este 15 Este 0 952 -- 100
2020-11-22 10:00:00 3.8 9 Este 13 Este 0 951.7 -- 100
2020-11-22 09:00:00 2.1 12 Este 22 Este 0 951.5 -- 100
2020-11-22 08:00:00 2.2 7 Sudeste 19 Este 0 951 -- 100
2020-11-22 07:00:00 1.8 12 Este 18 Este 0 950.8 -- 100
2020-11-22 06:00:00 2.4 12 Este 22 Este 0 950.5 -- 100
2020-11-22 05:00:00 1.6 16 Nordeste 22 Este 0 950.3 -- 98
2020-11-22 04:00:00 1.1 12 Este 15 Este 0 950.5 -- 96
2020-11-22 03:00:00 1.3 5 Este 11 Este 0 950.4 -- 93
2020-11-22 02:00:00 2.4 5 Este 9 Este 0 950.5 -- 92
2020-11-22 01:00:00 2.9 5 Este 10 Este 0 950.4 -- 92
2020-11-22 00:00:00 3.9 6 Este 9 Este 0 950.5 -- 90
2020-11-21 23:00:00 4.3 4 Este 10 Este 0 950.4 -- 89
2020-11-21 22:00:00 5.2 7 Nordeste 12 Nordeste 0 950.3 -- 86
2020-11-21 21:00:00 6.6 9 Nordeste 12 Nordeste 0 950.3 -- 82
2020-11-21 20:00:00 8.3 6 Este 13 Este 0 950 -- 77
2020-11-21 19:00:00 10.3 10 Este 15 Este 0 949.5 -- 71
2020-11-21 18:00:00 12.7 13 Este 30 Este 0 949.1 -- 62
2020-11-21 17:00:00 15.4 22 Este 32 Este 0 948.8 -- 50
2020-11-21 16:00:00 16.6 18 Este 29 Este 0 948.5 -- 52
2020-11-21 15:00:00 16.4 13 Este 20 Este 0 948.5 -- 54
2020-11-21 14:00:00 15.2 14 Este 23 Este 0 949.1 -- 61
2020-11-21 13:00:00 13.6 13 Este 21 Nordeste 0 949.4 -- 67
2020-11-21 12:00:00 11.1 15 Este 19 Nordeste 0 950.2 -- 78
2020-11-21 11:00:00 7.9 11 Este 16 Nordeste 0 950.5 -- 77
2020-11-21 10:00:00 4.6 7 Este 10 Este 0 950.3 -- 83
2020-11-21 09:00:00 2.2 4 Nordeste 7 Nordeste 0 950 -- 84
2020-11-21 08:00:00 0.5 3 Nordeste 8 Nordeste 0 949.6 -- 89
2020-11-21 07:00:00 1.4 4 Nordeste 8 Nordeste 0 949.1 -- 86
2020-11-21 06:00:00 1.3 5 Nordeste 7 Norte 0 949 -- 86
2020-11-21 05:00:00 1.6 6 Nordeste 14 Nordeste 0 949 -- 84
2020-11-21 04:00:00 1.3 5 Este 9 Este 0 949.1 -- 93
2020-11-21 03:00:00 1.6 3 Este 6 Este 0 949.4 -- 89
2020-11-21 02:00:00 2.9 3 Sur 12 Sudeste 0 949.7 -- 88
2020-11-21 01:00:00 4.3 5 Noroeste 8 Oeste 0 949.7 -- 84
2020-11-21 00:00:00 5 4 Oeste 6 Oeste 0 949.8 -- 82
2020-11-20 23:00:00 5.1 4 Sudoeste 8 Sur 0 950 -- 81
2020-11-20 22:00:00 6.2 3 Noroeste 8 Noroeste 0 949.6 -- 75
2020-11-20 21:00:00 8.1 3 Sudoeste 9 Sudoeste 0 949.5 -- 67
2020-11-20 20:00:00 8.9 6 Sur 8 Sur 0 949.4 -- 65
2020-11-20 19:00:00 11.2 4 Sur 9 Sur 0 949 -- 53
2020-11-20 18:00:00 13.4 4 Sur 5 Sur 0 949.1 -- 39
2020-11-20 17:00:00 16.2 2 Sur 10 Este 0 949.4 -- 32
2020-11-20 16:00:00 16.7 9 Este 21 Norte 0 949.4 -- 30
2020-11-20 15:00:00 16.3 9 Nordeste 20 Nordeste 0 949.9 -- 34
2020-11-20 14:00:00 15.6 7 Norte 19 Nordeste 0 950.8 -- 35
2020-11-20 13:00:00 14.2 9 Norte 18 Norte 0 951.6 -- 40
2020-11-20 12:00:00 12.4 5 Norte 10 Norte 0 952.5 -- 60
2020-11-20 11:00:00 9.8 6 Norte 11 Norte 0 952.7 -- 70
2020-11-20 10:00:00 7.5 3 Norte 8 Norte 0 952.3 -- 81
2020-11-20 09:00:00 5.8 3 Sudoeste -- -- -- 951.9 -- 92
2020-11-20 08:00:00 4.4 5 Noroeste 13 Norte 0 952.1 -- 97
2020-11-20 07:00:00 5.3 5 Oeste 11 Oeste 0 951.8 -- 98
2020-11-20 06:00:00 5.3 2 Sudoeste 9 Oeste 0 951.9 -- 97
2020-11-20 05:00:00 5.7 2 Sur 5 Sudeste 0 952.1 -- 96
2020-11-20 04:00:00 6.2 3 Sudeste 9 Sudeste 0 952.7 -- 95
2020-11-20 03:00:00 6.2 6 Este 7 Este 0 952.9 -- 95
2020-11-20 02:00:00 6.7 4 Nordeste 14 Nordeste 0 953.2 -- 94
2020-11-20 01:00:00 6.5 4 Nordeste 6 Este 0 953.6 -- 89
2020-11-20 00:00:00 8.7 0 Calma 7 Noroeste 0 953.7 -- 92
2020-11-19 23:00:00 9.9 2 Sudoeste 6 Sudoeste 0 953.9 -- 87
2020-11-19 22:00:00 11 4 Sudoeste 6 Sudoeste 0 953.7 -- 83
2020-11-19 21:00:00 11.4 2 Sur 6 Sur 0 953.7 -- 79
2020-11-19 20:00:00 12.5 3 Noroeste 6 Sur 0 953.4 -- 75
2020-11-19 19:00:00 14.1 3 Sudoeste 5 Sur 0 953.2 -- 68
2020-11-19 18:00:00 15.9 3 Oeste 10 Norte 0 952.8 -- 62
2020-11-19 17:00:00 18.9 7 Norte 15 Norte 0 952.8 -- 48
2020-11-19 16:00:00 19.6 7 Este 17 Nordeste 0 952.5 -- 49
2020-11-19 15:00:00 19.1 10 Nordeste 17 Norte 0 953 -- 53
2020-11-19 14:00:00 18.1 8 Norte 15 Norte 0 953.5 -- 58
2020-11-19 13:00:00 16.4 5 Norte 14 Norte 0 953.8 -- 66
2020-11-19 12:00:00 13.6 6 Nordeste 12 Norte 0 954.5 -- 79
2020-11-19 11:00:00 10.3 3 Nordeste 8 Sudeste 0 954.4 -- 91
2020-11-19 10:00:00 7.1 4 Este 6 Norte 0 954 -- 99
2020-11-19 09:00:00 5.5 3 Sur 8 Sudeste 0 953.3 -- 99
2020-11-19 08:00:00 4.9 3 Este 8 Sudeste 0 952.7 -- 99
2020-11-19 07:00:00 4.8 0 Calma 10 Noroeste 0 952.2 -- 98
2020-11-19 06:00:00 5.2 5 Norte 8 Noroeste 0 951.6 -- 97
2020-11-19 05:00:00 5.8 4 Sur 5 Sur 0 951.4 -- 96
2020-11-19 04:00:00 6.2 0 Calma 5 Sur 0 951.6 -- 96
2020-11-19 03:00:00 7.1 0 Calma 7 Sudoeste 0 951.6 -- 95
2020-11-19 02:00:00 8 4 Oeste 6 Oeste 0 951.6 -- 96
2020-11-19 01:00:00 9 2 Sudoeste 5 Oeste 0 951.6 -- 97
2020-11-19 00:00:00 8.5 4 Noroeste 8 Oeste 0 951.8 -- 94
2020-11-18 23:00:00 9.4 4 Oeste 6 Oeste 0 951.5 -- 94
2020-11-18 22:00:00 10.1 0 Calma 5 Sudeste 0 951.4 -- 91
2020-11-18 21:00:00 11.2 3 Sur 7 Sur 0 950.9 -- 88
2020-11-18 20:00:00 13 3 Sudoeste 5 Sur 0 950.7 -- 85
2020-11-18 19:00:00 14 3 Nordeste 6 Nordeste 0 950.6 -- 82
2020-11-18 18:00:00 15.8 3 Nordeste 7 Nordeste 0 950.1 -- 74
2020-11-18 17:00:00 18.8 5 Este 7 Nordeste 0 950 -- 62
2020-11-18 16:00:00 19.8 4 Norte 10 Norte 0 949.9 -- 60
2020-11-18 15:00:00 19.9 3 Noroeste 12 Norte 0 950.1 -- 60
2020-11-18 14:00:00 18.3 4 Nordeste 11 Noroeste 0 950.4 -- 66
2020-11-18 13:00:00 16.9 5 Norte 12 Norte 0 951 -- 71
2020-11-18 12:00:00 15.5 4 Norte 11 Norte 0 951.5 -- 75
2020-11-18 11:00:00 13.6 3 Norte 6 Norte 0 951.7 -- 80
2020-11-18 10:00:00 10.8 0 Calma 3 Nordeste 0 951.6 -- 90
2020-11-18 09:00:00 6.5 3 Sudeste 4 Sur 0 951.4 -- 99
2020-11-18 08:00:00 4.2 0 Calma 3 Sudoeste 0.2 951.2 -- 99
2020-11-18 07:00:00 5.8 3 Sur 5 Sudeste 0 950.9 -- 99
2020-11-18 06:00:00 5.1 2 Nordeste 3 Nordeste 0 950.8 -- 98
2020-11-18 05:00:00 4.9 2 Nordeste 4 Nordeste 0 950.5 -- 97
2020-11-18 04:00:00 5.7 2 Sur 5 Sudoeste 0 950.6 -- 96
2020-11-18 03:00:00 7 3 Sudoeste 8 Sur 0 950.6 -- 96
2020-11-18 02:00:00 7.7 2 Sur 6 Sur 0 950.6 -- 96
2020-11-18 01:00:00 7.7 4 Sur 12 Sur 0 951.1 -- 92
2020-11-18 00:00:00 8.8 5 Sur 7 Sur 0 951.1 -- 95
2020-11-17 23:00:00 10.1 5 Sur 8 Sur 0 951.1 -- 93
2020-11-17 22:00:00 10.4 4 Sur 8 Sur 0 951 -- 94
2020-11-17 21:00:00 11 5 Sur 7 Sur 0 950.7 -- 94
2020-11-17 20:00:00 12.4 4 Sur 6 Sur 0 950.6 -- 92
2020-11-17 19:00:00 13.5 0 Calma 6 Norte 0 950.2 -- 90
2020-11-17 18:00:00 15.1 4 Norte 7 Noroeste 0 949.7 -- 84
2020-11-17 17:00:00 17.8 3 Noroeste 8 Norte 0 949.8 -- 73
2020-11-17 16:00:00 18.4 4 Noroeste 10 Norte 0 949.6 -- 71
2020-11-17 15:00:00 17.5 7 Norte 14 Norte 0 949.8 -- 75
2020-11-17 14:00:00 16.6 5 Norte 12 Nordeste 0 950.2 -- 76
2020-11-17 13:00:00 14.9 6 Norte 11 Norte 0 950.8 -- 82
2020-11-17 12:00:00 13.7 4 Nordeste 10 Nordeste 0 951.3 -- 84
2020-11-17 11:00:00 12 3 Nordeste 8 Nordeste 0 951.4 -- 85
2020-11-17 10:00:00 9.6 3 Norte 6 Norte 0 951.2 -- 91
2020-11-17 09:00:00 7.9 2 Norte 4 Norte 0 950.7 -- 96
2020-11-17 08:00:00 6.1 0 Calma 7 Sudoeste 0 949.9 -- 96
2020-11-17 07:00:00 7.3 4 Sur 8 Sur 0 949.6 -- 97
2020-11-17 06:00:00 7.7 3 Sudoeste 7 Sudoeste 0 949.5 -- 96
2020-11-17 05:00:00 8 4 Sudoeste 5 Sudoeste 0 949.2 -- 97
2020-11-17 04:00:00 7.5 2 Sur 3 Nordeste 0 949.4 -- 95
2020-11-17 03:00:00 8.7 2 Sudoeste 8 Sudoeste 0 949.5 -- 95
2020-11-17 02:00:00 8.6 2 Sur 3 Sur 0 949.5 -- 94
2020-11-17 01:00:00 10.1 4 Sudoeste 9 Sudoeste 0 949.5 -- 93
2020-11-17 00:00:00 11.2 7 Sur 10 Sur 0 949.7 -- 91
2020-11-16 23:00:00 11.4 4 Sur 6 Sur 0 949.5 -- 92
2020-11-16 22:00:00 12.5 0 Calma 8 Sur 0 949.2 -- 90
2020-11-16 21:00:00 13.9 3 Sur 5 Sur 0 949 -- 87
2020-11-16 20:00:00 15 2 Sudeste 6 Sur 0 948.5 -- 83
2020-11-16 19:00:00 15.4 3 Norte 11 Oeste 0 948.2 -- 80
2020-11-16 18:00:00 17.5 5 Oeste 15 Oeste 0 947.5 -- 70
2020-11-16 17:00:00 18.8 9 Oeste 17 Sudoeste 0 947.1 -- 66
2020-11-16 16:00:00 19.3 8 Sudoeste 17 Oeste 0 947 -- 66
2020-11-16 15:00:00 20 8 Oeste 18 Oeste 0 947 -- 66
2020-11-16 14:00:00 19.4 7 Oeste 19 Oeste 0 947.3 -- 71
2020-11-16 13:00:00 17.7 8 Oeste 15 Oeste 0 947.8 -- 77
2020-11-16 12:00:00 17 8 Oeste 15 Sudoeste 0 948.1 -- 82
2020-11-16 11:00:00 15.8 7 Oeste 14 Sudoeste 0 948.3 -- 86
2020-11-16 10:00:00 14.8 6 Sudoeste 18 Sudoeste 0 947.6 -- 88
2020-11-16 09:00:00 13.6 9 Sudoeste 17 Sudoeste 0 947.2 -- 90
2020-11-16 08:00:00 13.3 7 Sudoeste 12 Oeste 0 946.6 -- 90
2020-11-16 07:00:00 12.7 6 Sudoeste 12 Sur 0 946.3 -- 90
2020-11-16 06:00:00 12.9 6 Sudoeste 15 Sudoeste 0 945.8 -- 89
2020-11-16 05:00:00 13.3 9 Sudoeste 15 Sudoeste 0 945.6 -- 87
2020-11-16 04:00:00 13 6 Sudoeste 14 Sudoeste 0 945.9 -- 87
2020-11-16 03:00:00 13.5 9 Sudoeste 19 Sudoeste 0 946 -- 85
2020-11-16 02:00:00 13.1 9 Sudoeste 14 Sudoeste 0 946.4 -- 87
2020-11-16 01:00:00 13.6 4 Oeste 11 Sudoeste 0 946.8 -- 85
2020-11-16 00:00:00 14.4 8 Sudoeste 16 Sudoeste 0 946.3 -- 83
2020-11-15 23:00:00 14.4 10 Sur 17 Sudoeste 0 946.2 -- 85
2020-11-15 22:00:00 14.8 9 Sur 14 Sudoeste 0 946.3 -- 85
2020-11-15 21:00:00 15.2 8 Sudoeste 11 Sur 0 946.5 -- 87
2020-11-15 20:00:00 15.5 3 Sudoeste 6 Sudoeste 0 946.2 -- 88
2020-11-15 19:00:00 16.2 3 Oeste 6 Noroeste 0 946.3 -- 85
2020-11-15 18:00:00 17.6 4 Noroeste 16 Oeste 0 945.8 -- 79
2020-11-15 17:00:00 19.1 6 Noroeste 18 Noroeste 0 945.5 -- 72
2020-11-15 16:00:00 20 8 Noroeste 19 Oeste 0 945.5 -- 70
2020-11-15 15:00:00 19.6 10 Noroeste 26 Oeste 0 945.4 -- 71
2020-11-15 14:00:00 19.9 13 Oeste 26 Oeste 0 945.6 -- 67
2020-11-15 13:00:00 18.5 10 Sudoeste 21 Oeste 0 946.2 -- 73
2020-11-15 12:00:00 16.8 13 Sudoeste 23 Sudoeste 0 946.8 -- 78
2020-11-15 11:00:00 15.6 8 Sudoeste 19 Sudoeste 0 947 -- 83
2020-11-15 10:00:00 12.8 7 Sudoeste 14 Sur 0 946.9 -- 92
2020-11-15 09:00:00 12 5 Sudoeste 10 Sur 0 946.7 -- 93
2020-11-15 08:00:00 11.7 4 Sudoeste 12 Oeste 0 946.4 -- 93
2020-11-15 07:00:00 11.7 4 Sudoeste 11 Sur 0 945.8 -- 93
2020-11-15 06:00:00 11.2 6 Sudoeste 12 Sudoeste 0 945.3 -- 95
2020-11-15 05:00:00 11.5 6 Sudoeste 17 Sudoeste 0 945.3 -- 94
2020-11-15 04:00:00 11.9 8 Sudoeste 16 Sudoeste 0 945.7 -- 95
2020-11-15 03:00:00 12.5 9 Sudoeste 17 Sudoeste 0 945.8 -- 94
2020-11-15 02:00:00 12.9 9 Sudoeste 20 Sudoeste 0 945.9 -- 92
2020-11-15 01:00:00 12.7 10 Sudoeste 22 Sudoeste 0 946 -- 93
2020-11-15 00:00:00 13 9 Sudoeste 21 Sudoeste 0 946 -- 91
2020-11-14 23:00:00 13.6 10 Sudoeste 18 Sudoeste 0 946 -- 90
2020-11-14 22:00:00 13.6 8 Sudoeste 18 Sudoeste 0 945.9 -- 91
2020-11-14 21:00:00 13.7 8 Sudoeste 15 Sudoeste 0 945.5 -- 91
2020-11-14 20:00:00 14 7 Sudoeste 17 Sudoeste 0 945.3 -- 90
2020-11-14 19:00:00 13.9 5 Sudoeste 21 Oeste 0 944.9 -- 91
2020-11-14 18:00:00 14.8 9 Sudoeste 16 Sudoeste 0 944.3 -- 83
2020-11-14 17:00:00 15 6 Sudoeste 17 Sudoeste 0 944.2 -- 84
2020-11-14 16:00:00 15.3 7 Sudoeste 20 Sudoeste 0 944.1 -- 83
2020-11-14 15:00:00 15.8 10 Sudoeste 21 Sudoeste 0 944.2 -- 77
2020-11-14 14:00:00 16.1 8 Sudoeste 20 Oeste 0 944.4 -- 77
2020-11-14 13:00:00 15 3 Sudoeste 6 Sudoeste 0 944.8 -- 84
2020-11-14 12:00:00 13.2 4 Este 7 Nordeste 0 945.4 -- 90
2020-11-14 11:00:00 11.7 3 Nordeste 5 Norte 0.4 945.5 -- 97
2020-11-14 10:00:00 10.9 3 Norte 5 Nordeste 0 945.3 -- 97
2020-11-14 09:00:00 10.3 3 Nordeste 5 Este 0.4 944.8 -- 96
2020-11-14 08:00:00 10.4 4 Sur 6 Sur 0.2 944.5 -- 93
2020-11-14 07:00:00 10.1 3 Sudeste 6 Sur 0.2 944.2 -- 93
2020-11-14 06:00:00 9.7 2 Sudoeste 5 Sudeste 0 944.1 -- 91
2020-11-14 05:00:00 9.5 0 Calma 6 Noroeste 0 943.8 -- 92
2020-11-14 04:00:00 9.1 2 Sudeste 5 Nordeste 0 944 -- 92
2020-11-14 03:00:00 9.1 2 Nordeste 8 Sur 0 944.3 -- 91
2020-11-14 02:00:00 10.6 6 Sur 10 Sur 0 944.7 -- 82
2020-11-14 01:00:00 9.2 4 Sur 7 Sudoeste 0 945.1 -- 91
2020-11-14 00:00:00 9.7 3 Sudoeste 6 Sur 0 945.1 -- 89
2020-11-13 23:00:00 9.4 3 Sur 6 Sur 0 945.2 -- 90
2020-11-13 22:00:00 8.8 3 Sur 5 Sur 0 945.1 -- 91
2020-11-13 21:00:00 9.9 3 Sur 5 Este 0 945 -- 88
2020-11-13 20:00:00 10.7 3 Sur 6 Este 0 944.6 -- 85
2020-11-13 19:00:00 12 4 Este 8 Este 0 944.2 -- 80
2020-11-13 18:00:00 13.9 5 Nordeste 8 Noroeste 0 943.7 -- 72
2020-11-13 17:00:00 16.8 3 Noroeste 14 Oeste 0 943.5 -- 60
2020-11-13 16:00:00 17.9 4 Noroeste 12 Noroeste 0 943.5 -- 55
2020-11-13 15:00:00 17.8 5 Noroeste 14 Oeste 0 943.8 -- 59
2020-11-13 14:00:00 17.1 6 Oeste 14 Noroeste 0 944.1 -- 59
2020-11-13 13:00:00 16.9 6 Oeste 12 Oeste 0 944.7 -- 60
2020-11-13 12:00:00 15 4 Oeste 7 Sudoeste 0 945.3 -- 64
2020-11-13 11:00:00 13.5 3 Nordeste 5 Norte 0 945.3 -- 74
2020-11-13 10:00:00 10.2 2 Este 7 Sur 0 945.2 -- 88
2020-11-13 09:00:00 6.3 5 Sur 8 Sur 0 944.8 -- 98
2020-11-13 08:00:00 3.6 2 Sur 4 Sur 0 944.3 -- 97
2020-11-13 07:00:00 4.4 2 Este 3 Este 0 944 -- 97
2020-11-13 06:00:00 5 0 Calma 4 Nordeste 0 943.8 -- 97
2020-11-13 05:00:00 5.8 0 Calma 3 Nordeste 0 943.6 -- 97
2020-11-13 04:00:00 6.1 2 Nordeste 5 Norte 0 943.7 -- 97
2020-11-13 03:00:00 6.1 0 Calma 5 Nordeste 0 943.9 -- 97
2020-11-13 02:00:00 6.2 3 Nordeste 6 Nordeste 0 943.8 -- 96
2020-11-13 01:00:00 6.8 3 Nordeste 6 Norte 0 944.1 -- 95
2020-11-13 00:00:00 7.4 2 Este 9 Este 0 943.9 -- 92
2020-11-12 23:00:00 8.4 5 Este 8 Norte 0 944 -- 89
2020-11-12 22:00:00 9.3 4 Norte 11 Sur 0 944 -- 86
2020-11-12 21:00:00 9.5 4 Sudeste 10 Este 0 943.9 -- 85
2020-11-12 20:00:00 10.3 7 Este 14 Este 0 943.9 -- 79
2020-11-12 19:00:00 12 9 Este 17 Este 0 943.5 -- 73
2020-11-12 18:00:00 13.5 14 Este 26 Este 0 943.1 -- 70
2020-11-12 17:00:00 15.4 20 Este 34 Este 0 943 -- 61
2020-11-12 16:00:00 16.5 22 Este 32 Este 0 943.1 -- 64
2020-11-12 15:00:00 15.9 22 Este 32 Este 0 943.5 -- 67
2020-11-12 14:00:00 15.1 22 Este 29 Este 0 944.4 -- 68
2020-11-12 13:00:00 13.9 15 Nordeste 24 Nordeste 0 945.3 -- 82
2020-11-12 12:00:00 11.4 14 Este 22 Nordeste 0 946.4 -- 92
2020-11-12 11:00:00 8.9 15 Este 23 Este 0 946.7 -- 100
2020-11-12 10:00:00 7.3 15 Nordeste 20 Nordeste 0 946.7 -- 99
2020-11-12 09:00:00 6.4 13 Este 19 Este 0 946.6 -- 99
2020-11-12 08:00:00 5.3 8 Nordeste 13 Nordeste 0 946.3 -- 99
2020-11-12 07:00:00 4.5 8 Nordeste 11 Nordeste 0 945.9 -- 98
2020-11-12 06:00:00 4 6 Este 9 Este 0 945.8 -- 98
2020-11-12 05:00:00 4.7 6 Este 8 Nordeste 0 946.1 -- 97
2020-11-12 04:00:00 5.3 4 Nordeste 6 Nordeste 0 946.4 -- 97
2020-11-12 03:00:00 6 3 Nordeste 8 Nordeste 0 946.9 -- 96
2020-11-12 02:00:00 6.3 4 Nordeste 6 Este 0 947 -- 95
2020-11-12 01:00:00 7.1 4 Nordeste 8 Nordeste 0 947.4 -- 94
2020-11-12 00:00:00 8.4 5 Nordeste 8 Nordeste 0 947.1 -- 92
2020-11-11 23:00:00 8.7 5 Sudeste 8 Sudeste 0 947.2 -- 92
2020-11-11 22:00:00 8.9 5 Sudeste 8 Sudeste 0 947.2 -- 91
2020-11-11 21:00:00 9.6 3 Este 9 Este 0 947.2 -- 88
2020-11-11 20:00:00 10.4 5 Este 9 Este 0 946.9 -- 85
2020-11-11 19:00:00 12 6 Nordeste 11 Nordeste 0 947 -- 81
2020-11-11 18:00:00 13.6 5 Norte 16 Norte 0 946.6 -- 75
2020-11-11 17:00:00 16.1 10 Norte 17 Nordeste 0 946.4 -- 60
2020-11-11 16:00:00 16.9 10 Norte 15 Norte 0 946.1 -- 63
2020-11-11 15:00:00 16.5 9 Nordeste 15 Nordeste 0 946.4 -- 67
2020-11-11 14:00:00 15.9 9 Nordeste 14 Nordeste 0 947 -- 72
2020-11-11 13:00:00 14.7 8 Nordeste 14 Norte 0 947.6 -- 78
2020-11-11 12:00:00 13.1 8 Nordeste 12 Nordeste 0 948.5 -- 81
2020-11-11 11:00:00 10.8 6 Este 9 Este 0 948.8 -- 83
2020-11-11 10:00:00 8.1 4 Nordeste 7 Nordeste 0 949.1 -- 91
2020-11-11 09:00:00 5.4 3 Nordeste 5 Nordeste 0 948.9 -- 99
2020-11-11 08:00:00 3.8 4 Este 7 Este 0 948.5 -- 99
2020-11-11 07:00:00 3.8 5 Nordeste 13 Este 0 948.7 -- 99
2020-11-11 06:00:00 3.8 4 Nordeste 10 Nordeste 0.2 948.9 -- 97
2020-11-11 05:00:00 3.6 3 Este 7 Este 0 948.9 -- 97
2020-11-11 04:00:00 4.2 5 Este 8 Este 0 949.2 -- 96
2020-11-11 03:00:00 4.5 2 Este 7 Norte 0 949.5 -- 96
2020-11-11 02:00:00 5.4 4 Norte 7 Noroeste 0 949.7 -- 96
2020-11-11 01:00:00 5.6 2 Nordeste 4 Sur 0 949.9 -- 94
2020-11-11 00:00:00 6.7 3 Sur 8 Sur 0 950.1 -- 93
2020-11-10 23:00:00 6.6 3 Sudeste 5 Sudeste 0 950.2 -- 93
2020-11-10 22:00:00 8.1 2 Sur 5 Sur 0 949.9 -- 91
2020-11-10 21:00:00 9.6 4 Sur 6 Sur 0 949.5 -- 88
2020-11-10 20:00:00 10.6 4 Sur 6 Norte 0 949.4 -- 87
2020-11-10 19:00:00 11.4 4 Nordeste 6 Norte 0 949.3 -- 84
2020-11-10 18:00:00 13.1 3 Nordeste 9 Nordeste 0 949.2 -- 78
2020-11-10 17:00:00 15.4 6 Nordeste 14 Norte 0 949.1 -- 67
2020-11-10 16:00:00 15.4 8 Nordeste 16 Norte 0 948.9 -- 70
2020-11-10 15:00:00 14.6 6 Norte 16 Norte 0 949.2 -- 76
2020-11-10 14:00:00 13.1 5 Norte 13 Norte 0 949.5 -- 86
2020-11-10 13:00:00 10.3 4 Nordeste 8 Nordeste 0 950.3 -- 100
2020-11-10 12:00:00 8.7 2 Nordeste 11 Norte 0 950.8 -- 100
2020-11-10 11:00:00 8.2 4 Norte 8 Norte 0 950.8 -- 100
2020-11-10 10:00:00 7.6 5 Nordeste 8 Sur 0 950.5 -- 99
2020-11-10 09:00:00 7.5 5 Sur 9 Sur 0 949.9 -- 99
2020-11-10 08:00:00 7.5 3 Nordeste 5 Este 0 949.4 -- 99
2020-11-10 07:00:00 7.6 2 Oeste 5 Noroeste 0 949 -- 99
2020-11-10 06:00:00 7.8 2 Sur 6 Sudeste 0 948.6 -- 99
2020-11-10 05:00:00 7.7 0 Calma 4 Norte 0 948.3 -- 99
2020-11-10 04:00:00 8 3 Noroeste 5 Noroeste 0.2 948.3 -- 98
2020-11-10 03:00:00 8.6 3 Oeste 7 Sudoeste 0 948.5 -- 98
2020-11-10 02:00:00 7.3 3 Oeste 5 Noroeste 0 948.3 -- 96
2020-11-10 01:00:00 7.5 0 Calma 5 Oeste 0 948.4 -- 96
2020-11-10 00:00:00 8.8 4 Noroeste 7 Sudoeste 0 948.5 -- 96
2020-11-09 23:00:00 9.5 4 Oeste 6 Oeste 0 948.5 -- 95
2020-11-09 22:00:00 10.4 2 Noroeste 8 Sudoeste 0 948.2 -- 92
2020-11-09 21:00:00 11.1 3 Sur 7 Sudoeste 0 947.7 -- 91
2020-11-09 20:00:00 12.4 3 Sudoeste 6 Sudoeste 0 947.5 -- 87
2020-11-09 19:00:00 13.3 4 Oeste 10 Sudoeste 0 947.1 -- 83
2020-11-09 18:00:00 14.6 7 Oeste 13 Oeste 0 946.6 -- 75
2020-11-09 17:00:00 16.4 6 Oeste 15 Oeste 0 946.3 -- 67
2020-11-09 16:00:00 16.8 6 Noroeste 17 Oeste 0 946 -- 70
2020-11-09 15:00:00 15.7 9 Oeste 21 Oeste 0 946 -- 70
2020-11-09 14:00:00 15.3 8 Oeste 17 Oeste 0 946.2 -- 73
2020-11-09 13:00:00 14.2 5 Sudoeste 12 Sudoeste 0 946.6 -- 82
2020-11-09 12:00:00 13 6 Sudoeste 15 Sudoeste 0 947.3 -- 88
2020-11-09 11:00:00 12.1 4 Sudoeste 9 Sudoeste 0.2 947.4 -- 89
2020-11-09 10:00:00 10.5 4 Noroeste 14 Noroeste 1 947.4 -- 92
2020-11-09 09:00:00 11.6 8 Sudoeste 17 Sur 0 946.6 -- 81
2020-11-09 08:00:00 11.2 11 Sur 16 Sur 0 945.6 -- 81
2020-11-09 07:00:00 10.2 6 Sur 8 Sur 0 945.3 -- 85
2020-11-09 06:00:00 10.2 3 Sudeste 9 Sur 0 945.1 -- 85
2020-11-09 05:00:00 10.6 8 Sur 13 Sur 0 944.9 -- 82
2020-11-09 04:00:00 10.3 7 Sur 11 Sur 0 945 -- 84
2020-11-09 03:00:00 9.4 3 Sudeste 10 Sur 0 945.2 -- 86
2020-11-09 02:00:00 9.3 4 Sur 10 Sur 0 945.4 -- 86
2020-11-09 01:00:00 10 5 Sur 10 Sur 0 945.6 -- 84
2020-11-09 00:00:00 9.9 7 Sur 10 Sur 0 945.6 -- 85
2020-11-08 23:00:00 11.1 6 Sur 12 Sur 0 945.7 -- 81
2020-11-08 22:00:00 10.7 4 Sudoeste 9 Sur 0 945.6 -- 84
2020-11-08 21:00:00 10.6 3 Sur 10 Sur 0 945.6 -- 86
2020-11-08 20:00:00 11.6 4 Sur 10 Sudeste 0 945.7 -- 85
2020-11-08 19:00:00 12.8 3 Sur 6 Este 0 945.6 -- 79
2020-11-08 18:00:00 14.7 2 Oeste 11 Oeste 0 945.3 -- 69
2020-11-08 17:00:00 17 5 Oeste 15 Oeste 0 945.3 -- 60
2020-11-08 16:00:00 17.9 6 Sudoeste 22 Sudoeste 0 945.2 -- 54
2020-11-08 15:00:00 18.2 9 Oeste 22 Sudoeste 0 945.5 -- 54
2020-11-08 14:00:00 17.5 6 Oeste 13 Oeste 0 945.8 -- 59
2020-11-08 13:00:00 16 5 Este 11 Nordeste 0 946.5 -- 64
2020-11-08 12:00:00 14 6 Nordeste 11 Nordeste 0 947.3 -- 74
2020-11-08 11:00:00 11.4 4 Nordeste 7 Este 0 947.5 -- 84
2020-11-08 10:00:00 9.4 4 Este 7 Nordeste 0 947.5 -- 89
2020-11-08 09:00:00 6.3 3 Norte 6 Norte 0 947.5 -- 94
2020-11-08 08:00:00 5.1 2 Sudoeste 10 Sur 0 947.1 -- 96
2020-11-08 07:00:00 5.2 2 Sudeste 4 Este 0 946.8 -- 95
2020-11-08 06:00:00 5.8 4 Este 8 Nordeste 0 946.7 -- 93
2020-11-08 05:00:00 8.1 7 Sur 12 Sudoeste 0 946.7 -- 90
2020-11-08 04:00:00 8.4 7 Sur 11 Sur 0 947 -- 91
2020-11-08 03:00:00 8.4 7 Sur 12 Sur 0 947.4 -- 90
2020-11-08 02:00:00 8.9 8 Sur 12 Sur 0 947.6 -- 89
2020-11-08 01:00:00 8.4 8 Sur 12 Sur 0 947.9 -- 89
2020-11-08 00:00:00 9.7 7 Sudoeste 13 Sudoeste 0 947.7 -- 84
2020-11-07 23:00:00 9.5 4 Sur 13 Sur 0 947.6 -- 85
2020-11-07 22:00:00 10.5 7 Sudoeste 13 Sur 0 947.5 -- 83
2020-11-07 21:00:00 11.1 9 Sur 15 Sur 0 947.2 -- 83
2020-11-07 20:00:00 12.1 8 Sudoeste 14 Sudoeste 0 947 -- 81
2020-11-07 19:00:00 13.1 8 Sudoeste 13 Sudoeste 0 946.4 -- 75
2020-11-07 18:00:00 14.1 8 Sudoeste 24 Sudoeste 0 945.7 -- 71
2020-11-07 17:00:00 15.8 12 Oeste 32 Oeste 0 945.3 -- 66
2020-11-07 16:00:00 15.8 14 Oeste 30 Oeste 0 944.9 -- 67
2020-11-07 15:00:00 15.8 17 Oeste 36 Oeste 0 944.4 -- 67
2020-11-07 14:00:00 14.9 15 Oeste 37 Oeste 0 943.9 -- 71
2020-11-07 13:00:00 14.6 17 Sudoeste 42 Sudoeste 0.2 943.7 -- 77
2020-11-07 12:00:00 14.5 20 Sudoeste 42 Sudoeste 0 943.6 -- 79
2020-11-07 11:00:00 12.7 10 Sudoeste 22 Sudoeste 0.4 943 -- 87
2020-11-07 10:00:00 10.7 14 Sur 21 Sur 1.2 942.3 -- 93
2020-11-07 09:00:00 10.6 15 Sur 26 Sudoeste 2.4 941.4 -- 89
2020-11-07 08:00:00 10.5 4 Sur 15 Sur 0 940.1 -- 88
2020-11-07 07:00:00 11.5 9 Sur 31 Sudoeste 0 939.9 -- 84
2020-11-07 06:00:00 12.6 18 Sudoeste 54 Sudoeste 0 939.4 -- 80
2020-11-07 05:00:00 12.5 21 Sur 36 Sur 0 938.2 -- 85
2020-11-07 04:00:00 12.1 17 Sur 28 Sudeste 0.6 938.8 -- 87
2020-11-07 03:00:00 12.1 17 Sur 35 Sudoeste 2.6 939.9 -- 91
2020-11-07 02:00:00 12.2 7 Oeste 29 Oeste 5 940.2 -- 96
2020-11-07 01:00:00 13.2 14 Oeste 31 Oeste 1.8 940.2 -- 90
2020-11-07 00:00:00 14.5 11 Sudeste 17 Sudeste 0.4 940.4 -- 87
2020-11-06 23:00:00 14.8 13 Sudeste 23 Nordeste 0 940.1 -- 86
2020-11-06 22:00:00 15.2 15 Norte 23 Nordeste 0 939.4 -- 84
2020-11-06 21:00:00 16.2 10 Sudeste 39 Sudeste 0 939.5 -- 78
2020-11-06 20:00:00 16.4 22 Este 42 Sudeste 0 938.9 -- 78
2020-11-06 19:00:00 17.2 23 Sudeste 51 Sudeste 0 938.3 -- 67
2020-11-06 18:00:00 17.5 27 Sudeste 50 Este 0 937.9 -- 67
2020-11-06 17:00:00 18.2 31 Sudeste 46 Este 0 937.3 -- 63
2020-11-06 16:00:00 18.6 27 Sudeste 54 Sudeste 0 937.8 -- 65
2020-11-06 15:00:00 18.6 36 Sudeste 57 Sudeste 0 937.9 -- 67
2020-11-06 14:00:00 17.8 31 Este 53 Este 0 939.2 -- 70
2020-11-06 13:00:00 17.8 33 Este 57 Sudeste 0 939.8 -- 74
2020-11-06 12:00:00 17.4 37 Sudeste 58 Sudeste 0 940.5 -- 74
2020-11-06 11:00:00 16 37 Este 55 Este 0 940.6 -0.4 79
2020-11-06 10:00:00 15.3 35 Este 55 Sudeste 0 941 -- 84
2020-11-06 09:00:00 14 27 Este 44 Este 0 941.1 -- 88
2020-11-06 08:00:00 13.2 28 Este 43 Este 0.2 941 -- 90
2020-11-06 07:00:00 13 28 Este 43 Este 0 941.1 -- 91
2020-11-06 06:00:00 12.3 27 Este 40 Este 0 941.3 -- 92
2020-11-06 05:00:00 12.2 26 Este 38 Este 0 941.5 -- 91
2020-11-06 04:00:00 12.1 18 Este 27 Este 0 942 -- 91
2020-11-06 03:00:00 11.9 13 Este 25 Este 0 942.3 -- 90
2020-11-06 02:00:00 11.7 18 Este 27 Este 0 942.3 -- 91
2020-11-06 01:00:00 11.7 21 Este 34 Este 0 942.1 -- 92
2020-11-06 00:00:00 11.6 25 Este 36 Este 0 942.2 -- 93
2020-11-05 23:00:00 12.1 17 Este 32 Este 0 942.6 -- 92
2020-11-05 22:00:00 12.7 23 Este 35 Este 0 942.4 -- 92
2020-11-05 21:00:00 12.7 19 Este 33 Este 0 941.8 -- 92
2020-11-05 20:00:00 12.5 20 Este 28 Este 0 941.6 -- 90
2020-11-05 19:00:00 12.6 19 Este 35 Este 0 941.2 -- 90
2020-11-05 18:00:00 13.4 23 Este 37 Este 0.6 940.2 -- 89
2020-11-05 17:00:00 13.4 24 Este 45 Este 0 941.4 -- 90
2020-11-05 16:00:00 13.8 28 Este 47 Este 0 940.7 -- 90
2020-11-05 15:00:00 13 29 Este 41 Este 0.2 940.8 -- 93
2020-11-05 14:00:00 11.6 25 Este 40 Este 1.4 941.8 -- 94
2020-11-05 13:00:00 11.8 27 Este 58 Este 1.4 942.1 -- 88
2020-11-05 12:00:00 12.2 30 Este 59 Este 0 942.3 -- 89
2020-11-05 11:00:00 12.4 36 Este 58 Este 0 942.5 -- 88
2020-11-05 10:00:00 12 41 Este 64 Este 0.2 942 -- 89
2020-11-05 09:00:00 11.6 39 Este 57 Este 0.2 942 -- 92
2020-11-05 08:00:00 11.5 40 Este 58 Este 0 941.6 -- 90
2020-11-05 07:00:00 11.5 37 Este 62 Este 0.4 941.3 -- 92
2020-11-05 06:00:00 12 42 Este 60 Este 0 941 -- 88
2020-11-05 05:00:00 11.4 38 Este 60 Este 0 940.7 -- 90
2020-11-05 04:00:00 11.3 37 Este 65 Este 0.2 940.9 -- 89
2020-11-05 03:00:00 11.3 35 Este 56 Este 0 941.2 -- 90
2020-11-05 02:00:00 11 35 Este 49 Este 0 940.7 -- 90
2020-11-05 01:00:00 10.9 28 Este 54 Este 0 941.4 -- 90
2020-11-05 00:00:00 10.9 34 Este 49 Este 0 941.4 -- 90
2020-11-04 23:00:00 10.6 25 Este 39 Este 0 941.4 -- 92
2020-11-04 22:00:00 10.1 19 Este 31 Este 0 941.1 -- 91
2020-11-04 21:00:00 10.1 20 Este 33 Este 0 940.8 -- 91
2020-11-04 20:00:00 10.4 21 Este 39 Este 0 940.4 -- 91
2020-11-04 19:00:00 11.1 24 Este 37 Este 0 940.1 -- 91
2020-11-04 18:00:00 11.2 23 Este 37 Este 0 939.8 -- 90
2020-11-04 17:00:00 11.4 18 Este 36 Este 0.8 939.9 -- 91
2020-11-04 16:00:00 12.2 19 Este 28 Este 0 939.9 -- 91
2020-11-04 15:00:00 12.5 24 Este 33 Este 0 940 -- 90
2020-11-04 14:00:00 12.3 22 Este 32 Este 0 940.6 -- 91
2020-11-04 13:00:00 13.6 3 Sudoeste 22 Sur 0 941.3 -- 85
2020-11-04 12:00:00 12.4 10 Nordeste 14 Nordeste 0 942 -- 93
2020-11-04 11:00:00 12.2 9 Este 13 Sudeste 0.2 942.6 0.1 95
2020-11-04 10:00:00 11.8 9 Este 19 Este 0 942.8 -- 95
2020-11-04 09:00:00 10.8 11 Este 17 Este 0 942.3 -- 97
2020-11-04 08:00:00 10.6 6 Norte 9 Nordeste 0.2 942.5 -- 97
2020-11-04 07:00:00 10.4 3 Norte 8 Nordeste 0 942.6 -- 96
2020-11-04 06:00:00 10.6 5 Nordeste 19 Este 0.2 943.1 -- 96
2020-11-04 05:00:00 10.7 15 Este 22 Este 1 943.4 -- 94
2020-11-04 04:00:00 10.9 7 Nordeste 12 Norte 0.2 944.4 -- 93
2020-11-04 03:00:00 11.3 4 Norte 15 Nordeste 0 945.1 -- 93
2020-11-04 02:00:00 11.2 12 Nordeste 18 Nordeste 0 945.4 -- 90
2020-11-04 01:00:00 11.7 13 Nordeste 26 Este 0.6 946.4 -- 84
2020-11-04 00:00:00 12.9 16 Este 31 Este 0 946.5 -- 82
2020-11-03 23:00:00 12.9 28 Nordeste 38 Nordeste 1.8 946.5 -- 84
2020-11-03 22:00:00 14.1 23 Nordeste 36 Nordeste 0 947.3 -- 69
2020-11-03 21:00:00 13.9 18 Nordeste 30 Nordeste 0 947.7 -- 75
2020-11-03 20:00:00 15.2 17 Nordeste 32 Norte 0 947.9 -- 68
2020-11-03 19:00:00 16 14 Norte 35 Norte 0 947.4 -- 64
2020-11-03 18:00:00 16.8 23 Norte 44 Norte 0 946.9 -- 63
2020-11-03 17:00:00 18.7 22 Norte 45 Norte 0 946.1 -- 53
2020-11-03 16:00:00 21.6 7 Norte 18 Norte 0 945.7 -- 50
2020-11-03 15:00:00 21.8 10 Nordeste 20 Nordeste 0 946 -- 47
2020-11-03 14:00:00 21.2 12 Norte 21 Norte 0 946.5 -- 53
2020-11-03 13:00:00 20.2 9 Norte 21 Norte 0 947.3 -- 61
2020-11-03 12:00:00 19 10 Norte 17 Norte 0 947.8 -- 66
2020-11-03 11:00:00 16.1 3 Nordeste 5 Norte 0 947.8 -- 72
2020-11-03 10:00:00 14.1 2 Sur 9 Sur 0 947.8 -- 75
2020-11-03 09:00:00 10.4 -- -- -- -- -- 947.6 -- 80
2020-11-03 08:00:00 7.3 2 Sur 4 Sudeste 0 947.3 -- 87
2020-11-03 07:00:00 7.2 0 Calma 6 Norte 0 947 -- 86
2020-11-03 06:00:00 8.4 3 Sudoeste 6 Sur 0 946.8 -- 82
2020-11-03 05:00:00 9.5 3 Oeste 7 Sudoeste 0 946.6 -- 80
2020-11-03 04:00:00 9.7 4 Sudoeste 8 Sudoeste 0 946.6 -- 79
2020-11-03 03:00:00 9.9 4 Sudoeste 6 Sudoeste 0 946.9 -- 77
2020-11-03 02:00:00 10.7 4 Sur 7 Sudoeste 0 946.7 -- 72
2020-11-03 01:00:00 11.8 4 Sudoeste 9 Sudoeste 0 946.9 -- 67
2020-11-03 00:00:00 12.2 5 Sudoeste 9 Sur 0 947 -- 65
2020-11-02 23:00:00 12.1 4 Sudoeste 9 Sur 0 947.2 -- 67
2020-11-02 22:00:00 12.3 3 Noroeste 9 Noroeste 0 947 -- 68
2020-11-02 21:00:00 13.7 4 Sudoeste 6 Sur 0 946.6 -- 60
2020-11-02 20:00:00 15.6 3 Sur 5 Sur 0 946.4 -- 54
2020-11-02 19:00:00 17.7 0 Calma 4 Noroeste 0 946 -- 46
2020-11-02 18:00:00 20.7 4 Noroeste 9 Oeste 0 945.6 -- 35
2020-11-02 17:00:00 24 5 Noroeste 15 Noroeste 0 945.5 -- 29
2020-11-02 16:00:00 24.8 4 Oeste 14 Oeste 0 945.7 -- 27
2020-11-02 15:00:00 24.2 6 Oeste 14 Norte 0 945.8 -- 29
2020-11-02 14:00:00 23.5 4 Noroeste 13 Noroeste 0 946.5 -- 37
2020-11-02 13:00:00 21.8 6 Norte 16 Norte 0 947.3 -- 43
2020-11-02 12:00:00 19.8 5 Norte 15 Noroeste 0 947.8 -- 49
2020-11-02 11:00:00 17.1 4 Norte 8 Norte 0 948 -- 57
2020-11-02 10:00:00 15.2 2 Sudeste 5 Sur 0 948 -- 63
2020-11-02 09:00:00 9.7 3 Sur 5 Sur 0 947.7 -- 81
2020-11-02 08:00:00 4.8 0 Calma 3 Sur 0 947.3 -- 93
2020-11-02 07:00:00 5.2 2 Sudeste 5 Sudeste 0 947.2 -- 92
2020-11-02 06:00:00 5.2 4 Este 5 Nordeste 0 947.2 -- 91
2020-11-02 05:00:00 5.8 3 Sudeste 6 Sur 0 947.1 -- 88
2020-11-02 04:00:00 7.1 4 Sur 6 Sur 0 947.3 -- 88
2020-11-02 03:00:00 7.1 3 Sur 4 Sur 0 947.6 -- 89
2020-11-02 02:00:00 7.8 0 Calma 10 Norte 0 947.6 -- 84
2020-11-02 01:00:00 9.7 2 Oeste 7 Sudoeste 0 947.8 -- 80
2020-11-02 00:00:00 10.8 5 Sur 8 Sudoeste 0 947.9 -- 77
2020-11-01 23:00:00 11.1 5 Noroeste 12 Noroeste 0 948.2 -- 77
2020-11-01 22:00:00 12.2 5 Sur 6 Sur 0 948 -- 71
2020-11-01 21:00:00 13.3 5 Sur 6 Sur 0 947.7 -- 68
2020-11-01 20:00:00 15.2 4 Sur 6 Sur 0 947.7 -- 61
2020-11-01 19:00:00 17.1 3 Oeste 5 Noroeste 0 947.6 -- 53
2020-11-01 18:00:00 19.5 4 Norte 8 Norte 0 947.4 -- 43
2020-11-01 17:00:00 23.2 3 Noroeste 10 Oeste 0 947.3 -- 36
2020-11-01 16:00:00 23.5 5 Norte 14 Oeste 0 947.6 -- 36
2020-11-01 15:00:00 23.8 3 Oeste 10 Norte 0 947.9 -- 37
2020-11-01 14:00:00 22.4 4 Norte 9 Norte 0 948.4 -- 41
2020-11-01 13:00:00 21.1 4 Norte 12 Norte 0 949.3 -- 49
2020-11-01 12:00:00 19 6 Norte 10 Norte 0 950.1 -- 54
2020-11-01 11:00:00 16.2 3 Norte 7 Norte 0 950.2 -- 62
2020-11-01 10:00:00 13.2 2 Sudeste 8 Sur 0 950.3 -- 71
2020-11-01 09:00:00 8.3 6 Sur 8 Sur 0 949.9 -- 84
2020-11-01 08:00:00 5.9 4 Norte 8 Noroeste 0 949.5 -- 91
2020-11-01 07:00:00 6.1 0 Calma 7 Sur 0 948.8 -- 87
2020-11-01 06:00:00 7.8 5 Sur 8 Sudoeste 0 948.8 -- 85
2020-11-01 05:00:00 8.7 6 Sudoeste 8 Sur 0 948.9 -- 83
2020-11-01 04:00:00 8.3 3 Sudoeste 7 Sur 0 949.4 -- 85
2020-11-01 03:00:00 9 4 Oeste 7 Sudoeste 0 949.7 -- 82
2020-11-01 02:00:00 9.4 3 Sudoeste 8 Sur 0 949.6 -- 82
2020-11-01 01:00:00 9.2 4 Sur 5 Sur 0 949.5 -- 84
2020-11-01 00:00:00 10.9 3 Sur 11 Sudoeste 0 949.5 -- 77
2020-10-31 23:00:00 10.5 3 Sudeste 7 Oeste 0 949.6 -- 76
2020-10-31 22:00:00 11.5 3 Sudeste 10 Nordeste 0 949.2 -- 75
2020-10-31 21:00:00 13.6 3 Sur 7 Sur 0 948.8 -- 66
2020-10-31 20:00:00 15.1 4 Sur 8 Sur 0 948.7 -- 62
2020-10-31 19:00:00 17.5 4 Oeste 4 Oeste 0 948.2 -- 51
2020-10-31 18:00:00 21 3 Oeste 9 Noroeste 0 948 -- 38
2020-10-31 17:00:00 24.1 4 Noroeste 9 Noroeste 0 948.2 -- 32
2020-10-31 16:00:00 24.2 5 Norte 10 Noroeste 0 947.9 -- 30
2020-10-31 15:00:00 23.8 3 Sudeste 9 Noroeste 0 948 -- 31
2020-10-31 14:00:00 22.8 4 Norte 11 Norte 0 948.9 -- 34
2020-10-31 13:00:00 20.9 7 Nordeste 12 Norte 0 949.5 -- 40
2020-10-31 12:00:00 18.7 5 Norte 11 Norte 0 950.2 -- 54
2020-10-31 11:00:00 15.1 2 Este 6 Nordeste 0 950.3 -- 65
2020-10-31 10:00:00 11.1 4 Nordeste 6 Nordeste 0 950.4 -- 77
2020-10-31 09:00:00 7.9 3 Este 6 Sudeste 0 950.1 -- 87
2020-10-31 08:00:00 5.2 0 Calma 6 Norte 0 949.7 -- 95
2020-10-31 07:00:00 5 3 Norte 6 Norte 0 949.2 -- 95
2020-10-31 06:00:00 4.7 3 Nordeste 5 Norte 0 948.9 -- 90
2020-10-31 05:00:00 6 0 Calma 4 Este 0 948.8 -- 92
2020-10-31 04:00:00 6.5 3 Este 7 Norte 0 948.7 -- 90
2020-10-31 03:00:00 7.2 4 Norte 7 Noroeste 0 948.9 -- 89
2020-10-31 02:00:00 7.6 3 Sur 6 Sudeste 0 948.8 -- 88
2020-10-31 01:00:00 8.4 5 Sudeste 7 Sudeste 0 949 -- 85
2020-10-31 00:00:00 8.7 3 Este 5 Nordeste 0 949.2 -- 84
2020-10-30 23:00:00 9.7 3 Este 5 Este 0 949.2 -- 79
2020-10-30 22:00:00 11.1 4 Sudeste 6 Sur 0 949.2 -- 74
2020-10-30 21:00:00 13.1 3 Sudeste 5 Sudeste 0 949.1 -- 69
2020-10-30 20:00:00 14.8 2 Sudeste 5 Nordeste 0 948.8 -- 62
2020-10-30 19:00:00 16.5 3 Nordeste 8 Nordeste 0 948.7 -- 54
2020-10-30 18:00:00 20.1 5 Nordeste 14 Nordeste 0 948.4 -- 44
2020-10-30 17:00:00 22.3 7 Nordeste 16 Norte 0 948.4 -- 35
2020-10-30 16:00:00 23.1 7 Norte 18 Norte 0 948.5 -- 34
2020-10-30 15:00:00 22.7 7 Nordeste 15 Norte 0 948.7 -- 38
2020-10-30 14:00:00 21.6 9 Nordeste 17 Nordeste 0 949.2 -- 44
2020-10-30 13:00:00 20 12 Nordeste 17 Nordeste 0 949.8 -- 51
2020-10-30 12:00:00 17.9 11 Nordeste 18 Nordeste 0 950.5 -- 61
2020-10-30 11:00:00 14.8 12 Nordeste 16 Nordeste 0 950.5 -- 71
2020-10-30 10:00:00 11.3 7 Nordeste 10 Nordeste 0 950.7 -- 84
2020-10-30 09:00:00 7.5 7 Nordeste 10 Nordeste 0 950.5 -- 92
2020-10-30 08:00:00 4.9 6 Nordeste 8 Nordeste 0 950 -- 97
2020-10-30 07:00:00 4.7 7 Nordeste 8 Nordeste 0 949.7 -- 96
2020-10-30 06:00:00 4.9 5 Nordeste 7 Nordeste 0 949.8 -- 96
2020-10-30 05:00:00 5.2 5 Este 6 Este 0 949.8 -- 96
2020-10-30 04:00:00 5.4 3 Nordeste 5 Nordeste 0 949.8 -- 95
2020-10-30 03:00:00 5.7 3 Nordeste 6 Norte 0 950 -- 94
2020-10-30 02:00:00 6.8 4 Nordeste 7 Norte 0 950 -- 92
2020-10-30 01:00:00 7.3 4 Norte 6 Norte 0 950.2 -- 91
2020-10-30 00:00:00 8.1 0 Calma 4 Este 0 950.3 -- 89
2020-10-29 23:00:00 8.9 3 Sur 5 Sudeste 0 950.4 -- 88
2020-10-29 22:00:00 9.9 2 Este 11 Sudeste 0 950.4 -- 83
2020-10-29 21:00:00 11.3 4 Sudeste 10 Sudeste 0 950.2 -- 80
2020-10-29 20:00:00 12.5 6 Este 9 Este 0 950.3 -- 76
2020-10-29 19:00:00 14.5 6 Nordeste 9 Nordeste 0 950 -- 70
2020-10-29 18:00:00 17.1 6 Nordeste 15 Norte 0 949.5 -- 61
2020-10-29 17:00:00 18.8 6 Norte 16 Norte 0 949.3 -- 57
2020-10-29 16:00:00 19.3 6 Nordeste 13 Noroeste 0 949.2 -- 57
2020-10-29 15:00:00 19.5 5 Norte 14 Norte 0 949.4 -- 57
2020-10-29 14:00:00 18.2 5 Norte 13 Este 0 949.8 -- 61
2020-10-29 13:00:00 16.9 5 Nordeste 16 Este 0 950.5 -- 65
2020-10-29 12:00:00 15.3 8 Nordeste 15 Nordeste 0 951.6 -- 70
2020-10-29 11:00:00 14.2 12 Nordeste 17 Norte 0 951.7 -- 75
2020-10-29 10:00:00 13.1 4 Este 11 Sudeste 0 951.3 -- 84
2020-10-29 09:00:00 10.6 8 Este -- -- -- 950.8 -- 94
2020-10-29 08:00:00 10.3 5 Nordeste 8 Nordeste 0 950.2 -- 95
2020-10-29 07:00:00 10.4 2 Nordeste 9 Sudeste 0 949.6 -- 92
2020-10-29 06:00:00 11 6 Sudeste 10 Sudeste 0 949.3 -- 92
2020-10-29 05:00:00 11 6 Sudeste 10 Sudeste 0 949.1 -- 93
2020-10-29 04:00:00 8.8 5 Sur 6 Sudeste 0 949 -- 94
2020-10-29 03:00:00 7.6 3 Este 5 Norte 0 949.3 -- 95
2020-10-29 02:00:00 7.1 0 Calma 4 Sur 0 949 -- 94
2020-10-29 01:00:00 8 3 Sur 6 Sur 0 948.8 -- 91
2020-10-29 00:00:00 9.3 4 Sur 6 Sur 0 948.8 -- 90
2020-10-28 23:00:00 9.8 3 Sudeste 7 Sur 0 949 -- 90
2020-10-28 22:00:00 10.6 4 Sur 13 Norte 0 948.7 -- 87
2020-10-28 21:00:00 11.6 6 Nordeste 14 Norte 0 948.4 -- 85
2020-10-28 20:00:00 12.7 2 Norte 6 Sudoeste 0 947.9 -- 79
2020-10-28 19:00:00 14.3 3 Oeste 5 Oeste 0 946.9 -- 71
2020-10-28 18:00:00 16.6 3 Norte 8 Noroeste 0 946.3 -- 62
2020-10-28 17:00:00 18.2 4 Noroeste 11 Oeste 0 946.3 -- 56
2020-10-28 16:00:00 18.3 3 Noroeste 12 Noroeste 0 946.5 -- 55
2020-10-28 15:00:00 18.4 4 Noroeste 14 Noroeste 0 946.6 -- 54
2020-10-28 14:00:00 17.2 7 Oeste 17 Noroeste 0 946.7 -- 60
2020-10-28 13:00:00 16.1 5 Sudoeste 13 Sur 0 947.1 -- 62
2020-10-28 12:00:00 14.4 5 Sudoeste 12 Sur 0 947.5 -- 69
2020-10-28 11:00:00 12.9 3 Noroeste 9 Norte 0 947.5 -- 72
2020-10-28 10:00:00 11.3 4 Oeste 10 Sur 0 947.4 -- 78
2020-10-28 09:00:00 9.2 6 Sur 10 Sudoeste 0 946.8 -- 83
2020-10-28 08:00:00 6.2 5 Sur 8 Sudoeste 0 945.9 -- 91
2020-10-28 07:00:00 7 4 Sudoeste 11 Sudoeste 0 945.4 -- 90
2020-10-28 06:00:00 7.5 5 Sudoeste 13 Sudoeste 0 945.2 -- 88
2020-10-28 05:00:00 7.5 8 Sudoeste 14 Sudoeste 0 944.8 -- 88
2020-10-28 04:00:00 7.6 8 Sudoeste 13 Sudoeste 0 944.7 -- 87
2020-10-28 03:00:00 7.9 5 Sudoeste 12 Sudoeste 0 944.9 -- 86
2020-10-28 02:00:00 7.7 5 Sudoeste 11 Sudoeste 0 944.9 -- 86
2020-10-28 01:00:00 8.4 5 Sudoeste 12 Sudoeste 0 945 -- 83
2020-10-28 00:00:00 8.4 6 Sudoeste 13 Sudoeste 0 945.1 -- 83